Virden, Arizona
Current Conditions -  °F | °C
As of 10:51 AM on Friday 31 Oct 2014 (Local Time) from KSAD Reporting Station
Clear Clear  
Wind Chill: 76°   Ceiling: Unl
Heat Index: 76°   Visibility: 10mi
Dew Point: 45°   Wind: 21mph
Humidity: 33%   Direction: 120°ESE
Pressure: 30.14"   Gusts: 26mph
Location:  32.7548°N, 109.14°W
Report Text: KSAD 311751Z AUTO 12018G23KT 10SM CLR 24/07 A3014 RMK AO2 SLP163 T02440072 10244 20167 58007
Loading
Personal Weather Stations






























Interactive Weather Map
Tropical Storm Tracking
New forecast layout! Learn more

10-Day Weather Forecast

Advertisements
Track Severe Weather on mobile